Time;durP1;ratioP1;P1;durP2;ratioP2;P2;SDS_P1;SDS_P2;PMS_P1;PMS_P2;Temp;Humidity;BMP_temperature;BMP_pressure;BME280_temperature;BME280_humidity;BME280_pressure;Samples;Min_cycle;Max_cycle;Signal;HPM_P1;HPM_P2
2024/02/27 00:01:10;;;;;;;0.70;0.70;;;11.00;97.40;;;;;;10526324;28;20257;-80
2024/02/27 00:06:12;;;;;;;0.60;0.60;;;11.00;97.20;;;;;;10542940;28;20223;-82
2024/02/27 00:11:15;;;;;;;0.50;0.50;;;11.00;97.00;;;;;;10548896;28;20226;-80
2024/02/27 00:16:18;;;;;;;0.60;0.60;;;11.00;96.90;;;;;;10545859;28;20211;-80
2024/02/27 00:21:21;;;;;;;0.50;0.50;;;10.90;97.00;;;;;;10537103;28;20273;-82
2024/02/27 00:26:23;;;;;;;0.60;0.60;;;10.90;97.00;;;;;;10524967;28;20227;-82
2024/02/27 00:31:27;;;;;;;0.40;0.40;;;10.90;97.00;;;;;;10535293;28;20211;-83
2024/02/27 00:36:29;;;;;;;0.50;0.50;;;10.80;97.10;;;;;;10542946;28;20238;-82
2024/02/27 00:41:32;;;;;;;0.70;0.70;;;10.70;97.30;;;;;;10555030;28;20196;-82
2024/02/27 00:46:37;;;;;;;0.50;0.50;;;10.70;97.40;;;;;;10561132;28;20223;-80
2024/02/27 00:51:39;;;;;;;0.50;0.50;;;10.60;97.50;;;;;;10559728;28;20199;-80
2024/02/27 00:56:42;;;;;;;0.40;0.40;;;10.60;97.60;;;;;;10551040;28;20684;-79
2024/02/27 01:01:45;;;;;;;0.50;0.50;;;10.50;97.60;;;;;;10549129;28;20208;-81
2024/02/27 01:06:48;;;;;;;0.40;0.40;;;10.50;97.60;;;;;;10568143;28;20223;-82
2024/02/27 01:11:50;;;;;;;0.67;0.67;;;10.50;97.60;;;;;;10578278;28;20259;-81
2024/02/27 01:16:54;;;;;;;0.47;0.47;;;10.40;97.50;;;;;;10551185;28;20257;-80
2024/02/27 01:21:59;;;;;;;0.50;0.50;;;10.40;97.70;;;;;;10540265;28;20242;-82
2024/02/27 01:27:01;;;;;;;0.50;0.50;;;10.40;98.00;;;;;;10539552;28;20644;-80
2024/02/27 01:32:08;;;;;;;0.50;0.50;;;10.40;98.10;;;;;;10540849;28;20231;-81
2024/02/27 01:37:10;;;;;;;0.50;0.50;;;10.40;98.20;;;;;;10538711;28;21666;-82
2024/02/27 01:42:13;;;;;;;0.50;0.50;;;10.40;98.40;;;;;;10538274;28;20237;-82
2024/02/27 01:47:18;;;;;;;0.50;0.50;;;10.40;98.40;;;;;;10539380;28;20215;-80
2024/02/27 01:52:22;;;;;;;0.50;0.50;;;10.50;98.30;;;;;;10539545;28;20241;-81
2024/02/27 01:57:24;;;;;;;0.50;0.50;;;10.50;98.50;;;;;;10518155;28;20215;-80
2024/02/27 02:02:34;;;;;;;0.40;0.40;;;10.50;98.70;;;;;;10542423;28;20204;-82
2024/02/27 02:07:38;;;;;;;0.60;0.60;;;10.50;98.90;;;;;;10529006;28;20224;-82
2024/02/27 02:12:41;;;;;;;0.50;0.50;;;10.50;99.00;;;;;;10548605;28;20249;-83
2024/02/27 02:17:45;;;;;;;0.50;0.50;;;10.50;98.90;;;;;;10546025;28;20800;-81
2024/02/27 02:22:49;;;;;;;0.40;0.40;;;10.50;99.00;;;;;;10547160;28;20214;-81
2024/02/27 02:27:53;;;;;;;0.50;0.50;;;10.50;99.00;;;;;;10542243;28;20594;-81
2024/02/27 02:32:55;;;;;;;0.53;0.53;;;10.50;99.10;;;;;;10557812;28;20192;-83
2024/02/27 02:37:59;;;;;;;0.60;0.60;;;10.50;99.10;;;;;;10528137;28;20261;-82
2024/02/27 02:43:02;;;;;;;0.50;0.50;;;10.50;99.20;;;;;;10545992;28;20669;-83
2024/02/27 02:48:05;;;;;;;0.50;0.50;;;10.50;99.20;;;;;;10545773;28;20252;-81
2024/02/27 02:53:09;;;;;;;0.50;0.50;;;10.50;99.20;;;;;;10544706;28;20199;-82
2024/02/27 02:58:11;;;;;;;0.40;0.40;;;10.50;98.70;;;;;;10542852;28;20288;-80
2024/02/27 03:03:13;;;;;;;0.60;0.60;;;10.50;98.50;;;;;;10543597;28;20204;-84
2024/02/27 03:08:17;;;;;;;0.40;0.40;;;10.50;98.40;;;;;;10543986;28;20224;-81
2024/02/27 03:13:19;;;;;;;0.50;0.50;;;10.50;97.70;;;;;;10551826;28;20257;-80
2024/02/27 03:18:22;;;;;;;0.60;0.60;;;10.50;97.50;;;;;;10541198;28;20692;-81
2024/02/27 03:23:25;;;;;;;0.70;0.70;;;10.40;97.60;;;;;;10536154;28;20204;-82
2024/02/27 03:28:28;;;;;;;0.50;0.50;;;10.40;97.50;;;;;;10539872;28;20224;-82
2024/02/27 03:33:30;;;;;;;0.70;0.70;;;10.40;97.30;;;;;;10535097;28;20289;-80
2024/02/27 03:38:34;;;;;;;0.50;0.50;;;10.40;97.20;;;;;;10539847;28;20261;-80
2024/02/27 03:43:36;;;;;;;0.50;0.50;;;10.40;96.80;;;;;;10540012;28;20192;-80
2024/02/27 03:48:39;;;;;;;0.80;0.80;;;10.30;96.60;;;;;;10542174;28;20227;-79
2024/02/27 03:53:42;;;;;;;0.50;0.50;;;10.30;96.50;;;;;;10543125;28;20204;-81
2024/02/27 03:58:46;;;;;;;0.60;0.60;;;10.30;96.30;;;;;;10542881;28;20731;-82
2024/02/27 04:03:48;;;;;;;0.70;0.70;;;10.30;95.90;;;;;;10542350;28;20207;-81
2024/02/27 04:08:52;;;;;;;0.70;0.70;;;10.30;95.90;;;;;;10541147;28;20253;-82
2024/02/27 04:13:54;;;;;;;0.60;0.60;;;10.30;95.90;;;;;;10542775;28;20200;-83
2024/02/27 04:18:57;;;;;;;0.70;0.70;;;10.20;95.60;;;;;;10541637;28;20223;-79
2024/02/27 04:24:01;;;;;;;0.67;0.67;;;10.30;95.90;;;;;;10541758;28;20200;-82
2024/02/27 04:29:03;;;;;;;0.70;0.70;;;10.30;95.50;;;;;;10540703;28;20236;-82
2024/02/27 04:34:05;;;;;;;0.80;0.80;;;10.30;95.50;;;;;;10542124;28;20199;-80
2024/02/27 04:39:09;;;;;;;0.50;0.50;;;10.20;95.60;;;;;;10523464;28;20231;-81
2024/02/27 04:44:12;;;;;;;0.70;0.70;;;10.20;95.40;;;;;;10536627;28;20219;-82
2024/02/27 04:49:14;;;;;;;0.60;0.60;;;10.30;95.20;;;;;;10541264;28;20296;-79
2024/02/27 04:54:18;;;;;;;0.60;0.60;;;10.20;95.10;;;;;;10544924;28;20207;-80
2024/02/27 04:59:21;;;;;;;0.50;0.50;;;10.30;94.80;;;;;;10530050;28;20192;-81
2024/02/27 05:04:23;;;;;;;0.70;0.70;;;10.20;95.10;;;;;;10541994;28;20203;-82
2024/02/27 05:09:27;;;;;;;0.60;0.60;;;10.20;95.00;;;;;;10574855;22;20231;-81
2024/02/27 05:14:29;;;;;;;0.60;0.60;;;10.20;94.80;;;;;;10542165;28;20204;-81
2024/02/27 05:19:32;;;;;;;0.60;0.60;;;10.20;95.10;;;;;;10534976;28;20705;-80
2024/02/27 05:24:35;;;;;;;0.60;0.60;;;10.20;95.30;;;;;;10506191;28;20250;-79
2024/02/27 05:29:38;;;;;;;0.50;0.50;;;10.20;95.40;;;;;;10511296;28;20227;-81
2024/02/27 05:34:40;;;;;;;0.60;0.60;;;10.20;95.60;;;;;;10498943;28;20277;-82
2024/02/27 05:39:44;;;;;;;0.50;0.50;;;10.20;95.40;;;;;;10510087;28;20204;-82
2024/02/27 05:44:46;;;;;;;0.50;0.50;;;10.20;95.40;;;;;;10529923;28;20249;-82
2024/02/27 05:49:48;;;;;;;0.50;0.50;;;10.10;95.50;;;;;;10531391;28;20232;-82
2024/02/27 05:54:52;;;;;;;0.60;0.60;;;10.10;95.50;;;;;;10494331;28;20674;-81
2024/02/27 05:59:55;;;;;;;0.50;0.50;;;10.10;95.20;;;;;;10503110;28;20654;-83
2024/02/27 06:04:57;;;;;;;0.60;0.60;;;10.10;95.20;;;;;;10496526;28;20207;-82
2024/02/27 06:10:01;;;;;;;0.50;0.50;;;10.00;95.30;;;;;;10501116;28;20812;-82
2024/02/27 06:15:04;;;;;;;0.50;0.50;;;10.00;95.30;;;;;;10531563;28;20216;-82
2024/02/27 06:22:10;;;;;;;0.47;0.47;;;9.90;96.00;;;;;;10500678;28;20223;-83
2024/02/27 06:25:31;;;;;;;0.50;0.50;;;9.90;95.90;;;;;;10531915;28;20211;-83
2024/02/27 06:30:34;;;;;;;0.50;0.50;;;9.90;96.00;;;;;;10517394;28;20233;-83
2024/02/27 06:35:36;;;;;;;0.50;0.50;;;9.90;95.90;;;;;;10529051;28;20701;-83
2024/02/27 06:40:42;;;;;;;0.50;0.50;;;9.90;95.90;;;;;;10554692;28;20229;-83
2024/02/27 06:45:45;;;;;;;0.50;0.50;;;9.90;96.10;;;;;;10531554;28;20228;-82
2024/02/27 06:50:51;;;;;;;0.50;0.50;;;9.90;96.00;;;;;;10515793;28;20665;-81
2024/02/27 06:55:55;;;;;;;0.50;0.50;;;9.90;96.20;;;;;;10515002;28;20220;-82
2024/02/27 07:00:57;;;;;;;0.50;0.50;;;10.00;95.70;;;;;;10544582;28;20209;-82
2024/02/27 07:06:00;;;;;;;0.40;0.40;;;10.00;95.60;;;;;;10515768;28;20271;-82
2024/02/27 07:11:06;;;;;;;0.40;0.40;;;10.00;95.10;;;;;;10513241;28;20207;-81
2024/02/27 07:16:08;;;;;;;0.40;0.40;;;10.00;95.40;;;;;;10522429;28;20499;-81
2024/02/27 07:21:10;;;;;;;0.40;0.40;;;10.00;95.30;;;;;;10514592;28;20200;-81
2024/02/27 07:26:14;;;;;;;0.53;0.53;;;10.00;95.40;;;;;;10550745;28;20223;-81
2024/02/27 07:31:18;;;;;;;0.50;0.50;;;10.10;95.30;;;;;;10553384;28;20196;-82
2024/02/27 07:36:21;;;;;;;0.60;0.60;;;10.10;95.00;;;;;;10518252;28;20204;-81
2024/02/27 07:41:25;;;;;;;0.50;0.50;;;10.20;95.20;;;;;;10516155;28;20204;-82
2024/02/27 07:46:28;;;;;;;0.40;0.40;;;10.20;95.10;;;;;;10551173;28;20235;-81
2024/02/27 07:51:31;;;;;;;0.33;0.33;;;10.30;95.00;;;;;;10516162;28;20204;-82
2024/02/27 07:56:35;;;;;;;0.50;0.50;;;10.30;95.10;;;;;;10520140;28;20219;-81
2024/02/27 08:01:37;;;;;;;0.50;0.50;;;10.40;95.10;;;;;;10548876;28;20188;-82
2024/02/27 08:06:40;;;;;;;0.20;0.20;;;10.50;94.80;;;;;;10518365;28;20230;-82
2024/02/27 08:11:44;;;;;;;0.47;0.47;;;10.50;94.70;;;;;;10550542;28;20199;-82
2024/02/27 08:16:46;;;;;;;0.50;0.50;;;10.60;94.90;;;;;;10521739;28;20211;-82
2024/02/27 08:21:49;;;;;;;0.50;0.50;;;10.70;94.40;;;;;;10543432;28;20195;-80
2024/02/27 08:26:52;;;;;;;0.40;0.40;;;10.80;94.20;;;;;;10558302;28;20220;-81
2024/02/27 08:31:55;;;;;;;0.43;0.43;;;10.80;94.00;;;;;;10563225;28;20196;-82
2024/02/27 08:36:57;;;;;;;0.40;0.40;;;10.90;94.10;;;;;;10549887;28;20212;-81
2024/02/27 08:42:02;;;;;;;0.50;0.50;;;10.90;94.40;;;;;;10566392;28;20218;-81
2024/02/27 08:47:05;;;;;;;0.50;0.50;;;11.00;94.50;;;;;;10585584;28;20227;-82
2024/02/27 08:52:07;;;;;;;0.40;0.40;;;11.10;94.60;;;;;;10570821;28;20224;-81
2024/02/27 08:57:11;;;;;;;0.40;0.40;;;11.20;94.70;;;;;;10550043;28;20633;-81
2024/02/27 09:02:14;;;;;;;0.40;0.40;;;11.30;94.70;;;;;;10528144;28;20292;-81
2024/02/27 09:07:16;;;;;;;0.30;0.30;;;11.30;94.40;;;;;;10547950;28;20285;-81
2024/02/27 09:12:20;;;;;;;0.40;0.40;;;11.20;94.10;;;;;;10533994;28;20197;-83
2024/02/27 09:17:22;;;;;;;0.50;0.50;;;11.20;94.20;;;;;;10522009;28;20219;-83
2024/02/27 09:22:24;;;;;;;0.20;0.20;;;11.20;94.30;;;;;;10520924;28;20250;-83
2024/02/27 09:27:31;;;;;;;0.50;0.50;;;11.20;94.50;;;;;;10528883;28;20300;-83
2024/02/27 09:32:33;;;;;;;0.50;0.50;;;11.30;95.00;;;;;;10499414;28;20209;-84
2024/02/27 09:37:37;;;;;;;0.50;0.50;;;11.30;95.70;;;;;;10510677;28;20651;-83
2024/02/27 09:42:41;;;;;;;0.50;0.50;;;11.30;95.30;;;;;;10501774;28;20207;-83
2024/02/27 09:47:47;;;;;;;0.40;0.40;;;11.40;95.60;;;;;;10524922;28;20220;-84
2024/02/27 09:52:51;;;;;;;0.40;0.40;;;11.50;95.80;;;;;;10530276;28;20277;-84
2024/02/27 09:57:55;;;;;;;0.40;0.40;;;11.50;96.00;;;;;;10504304;28;20205;-85
2024/02/27 10:02:58;;;;;;;0.40;0.40;;;11.60;96.20;;;;;;10529955;28;20207;-85
2024/02/27 10:08:03;;;;;;;0.50;0.50;;;11.70;95.90;;;;;;10526811;28;20729;-85
2024/02/27 10:13:07;;;;;;;0.40;0.40;;;11.80;95.90;;;;;;10503252;28;20227;-85
2024/02/27 10:18:09;;;;;;;0.50;0.50;;;11.90;95.50;;;;;;10525360;28;20631;-85
2024/02/27 10:23:12;;;;;;;0.37;0.37;;;11.80;95.40;;;;;;10500115;28;20205;-85
2024/02/27 10:28:18;;;;;;;0.50;0.50;;;11.80;95.50;;;;;;10520591;28;20227;-84
2024/02/27 10:33:23;;;;;;;0.50;0.50;;;11.90;95.50;;;;;;10523188;28;20682;-86
2024/02/27 10:38:27;;;;;;;0.60;0.60;;;11.80;95.60;;;;;;10527215;27;20223;-84
2024/02/27 10:43:33;;;;;;;0.50;0.50;;;11.80;95.40;;;;;;10517977;28;20208;-85
2024/02/27 10:48:35;;;;;;;0.43;0.43;;;11.80;95.50;;;;;;10518578;28;20220;-84
2024/02/27 10:53:39;;;;;;;0.40;0.40;;;11.80;94.80;;;;;;10507692;28;20200;-83
2024/02/27 10:58:43;;;;;;;0.30;0.30;;;11.80;95.10;;;;;;10518932;28;20651;-84
2024/02/27 11:03:50;;;;;;;0.30;0.30;;;11.80;95.20;;;;;;10501665;28;20205;-84
2024/02/27 11:08:56;;;;;;;0.40;0.40;;;11.90;95.40;;;;;;10532792;22;20228;-78
2024/02/27 11:14:05;;;;;;;0.40;0.40;;;12.00;95.00;;;;;;10518695;28;20658;-78
2024/02/27 11:19:13;;;;;;;0.20;0.20;;;12.20;95.30;;;;;;10503343;28;20227;-77
2024/02/27 11:24:16;;;;;;;0.40;0.40;;;12.30;95.00;;;;;;10495611;28;20201;-77
2024/02/27 11:29:21;;;;;;;0.20;0.20;;;12.40;94.70;;;;;;10494451;28;20766;-77
2024/02/27 11:34:24;;;;;;;0.50;0.50;;;12.40;94.70;;;;;;10495189;28;20685;-77
2024/02/27 11:39:31;;;;;;;0.40;0.40;;;12.50;94.10;;;;;;10475982;28;20213;-77
2024/02/27 11:45:02;;;;;;;0.40;0.40;;;12.50;94.90;;;;;;10494331;28;20634;-78
2024/02/27 11:50:06;;;;;;;0.40;0.40;;;12.60;93.90;;;;;;10491179;28;20282;-77
2024/02/27 11:55:10;;;;;;;0.40;0.40;;;12.60;94.40;;;;;;10475613;28;20201;-77
2024/02/27 12:00:15;;;;;;;0.43;0.43;;;12.70;94.30;;;;;;10493453;28;20266;-78
2024/02/27 12:05:18;;;;;;;0.33;0.33;;;12.70;94.30;;;;;;10493229;28;20204;-77
2024/02/27 12:10:20;;;;;;;0.40;0.40;;;12.60;93.90;;;;;;10493097;28;20726;-78
2024/02/27 12:15:26;;;;;;;0.40;0.40;;;12.50;94.30;;;;;;10488713;28;20204;-78
2024/02/27 12:20:28;;;;;;;0.30;0.30;;;12.30;94.60;;;;;;10492655;28;20196;-78
2024/02/27 12:25:41;;;;;;;0.40;0.40;;;12.20;94.70;;;;;;10491674;28;20614;-77
2024/02/27 12:30:48;;;;;;;0.50;0.50;;;12.10;94.80;;;;;;10492004;28;20247;-77
2024/02/27 12:35:50;;;;;;;0.23;0.23;;;12.10;95.10;;;;;;10490317;28;20705;-78
2024/02/27 12:40:52;;;;;;;0.40;0.40;;;12.00;95.30;;;;;;10473773;28;20223;-78
2024/02/27 12:45:57;;;;;;;0.40;0.40;;;12.10;95.50;;;;;;10498970;28;20640;-77
2024/02/27 12:51:04;;;;;;;0.40;0.40;;;12.10;95.30;;;;;;10492381;28;20224;-78
2024/02/27 12:56:06;;;;;;;0.40;0.40;;;12.10;95.40;;;;;;10465644;28;20561;-77
2024/02/27 13:01:12;;;;;;;0.40;0.40;;;12.20;95.60;;;;;;10481034;28;20224;-78
2024/02/27 13:06:14;;;;;;;0.50;0.50;;;12.30;95.40;;;;;;10471851;28;20240;-77
2024/02/27 13:11:18;;;;;;;0.50;0.50;;;12.40;95.30;;;;;;10469491;28;20224;-77
2024/02/27 13:16:22;;;;;;;0.40;0.40;;;12.40;95.10;;;;;;10467891;28;20654;-77
2024/02/27 13:21:24;;;;;;;0.50;0.50;;;12.50;94.90;;;;;;10469193;28;20193;-77
2024/02/27 13:26:27;;;;;;;0.30;0.30;;;12.50;94.90;;;;;;10470846;28;20228;-78
2024/02/27 13:31:30;;;;;;;0.40;0.40;;;12.60;94.90;;;;;;10465366;28;20270;-77
2024/02/27 13:36:32;;;;;;;0.30;0.30;;;12.70;94.80;;;;;;10490977;28;20603;-77
2024/02/27 13:41:35;;;;;;;0.30;0.30;;;12.80;94.60;;;;;;10478285;28;20200;-77
2024/02/27 13:46:39;;;;;;;0.40;0.40;;;12.80;94.40;;;;;;10506554;28;20217;-77
2024/02/27 13:51:42;;;;;;;0.40;0.40;;;12.80;94.40;;;;;;10499428;28;20224;-78
2024/02/27 13:56:45;;;;;;;0.40;0.40;;;12.90;94.20;;;;;;10491401;28;20216;-77
2024/02/27 14:01:49;;;;;;;0.30;0.30;;;12.80;94.60;;;;;;10498596;28;20185;-77
2024/02/27 14:06:52;;;;;;;0.37;0.37;;;12.90;93.90;;;;;;10480263;28;20224;-77
2024/02/27 14:11:54;;;;;;;0.30;0.30;;;12.80;94.00;;;;;;10489999;28;20482;-77
2024/02/27 14:16:58;;;;;;;0.40;0.40;;;12.70;93.90;;;;;;10504756;28;20286;-77
2024/02/27 14:22:00;;;;;;;0.30;0.30;;;12.60;94.00;;;;;;10497721;28;20192;-77
2024/02/27 14:27:02;;;;;;;0.30;0.30;;;12.40;94.10;;;;;;10488595;28;20217;-77
2024/02/27 14:32:07;;;;;;;0.30;0.30;;;12.40;94.30;;;;;;10456979;28;20227;-77
2024/02/27 14:37:09;;;;;;;0.37;0.37;;;12.40;94.10;;;;;;10484356;28;20275;-78
2024/02/27 14:42:11;;;;;;;0.33;0.33;;;12.30;94.30;;;;;;10483553;28;20693;-78
2024/02/27 14:47:16;;;;;;;0.40;0.40;;;12.30;94.50;;;;;;10483406;28;20634;-77
2024/02/27 14:52:18;;;;;;;0.33;0.33;;;12.30;94.70;;;;;;10480563;28;20724;-77
2024/02/27 14:57:20;;;;;;;0.20;0.20;;;12.30;94.40;;;;;;10479975;28;20217;-77
2024/02/27 15:02:24;;;;;;;0.30;0.30;;;12.30;94.40;;;;;;10484278;28;20614;-77
2024/02/27 15:07:26;;;;;;;0.40;0.40;;;12.30;94.40;;;;;;10480941;28;20571;-78
2024/02/27 15:12:29;;;;;;;0.30;0.30;;;12.30;94.50;;;;;;10479300;28;20213;-77
2024/02/27 15:17:33;;;;;;;0.50;0.50;;;12.20;94.60;;;;;;10488188;28;20569;-76
2024/02/27 15:22:36;;;;;;;0.40;0.40;;;12.20;94.60;;;;;;10481324;28;20650;-77
2024/02/27 15:27:38;;;;;;;0.40;0.40;;;12.10;94.80;;;;;;10479925;28;20209;-77
2024/02/27 15:32:42;;;;;;;0.30;0.30;;;12.10;95.10;;;;;;10488838;28;20220;-77
2024/02/27 15:37:44;;;;;;;0.50;0.50;;;12.10;95.00;;;;;;10482749;28;20224;-77
2024/02/27 15:42:46;;;;;;;0.40;0.40;;;12.10;95.00;;;;;;10482960;28;20212;-78
2024/02/27 15:47:51;;;;;;;0.30;0.30;;;12.10;94.80;;;;;;10466830;28;20265;-77
2024/02/27 15:52:55;;;;;;;0.40;0.40;;;12.00;94.90;;;;;;10482013;28;20624;-77
2024/02/27 15:57:57;;;;;;;0.30;0.30;;;12.00;95.10;;;;;;10476790;28;20236;-76
2024/02/27 16:03:11;;;;;;;0.20;0.20;;;12.00;95.00;;;;;;10484521;28;20201;-77
2024/02/27 16:08:14;;;;;;;0.30;0.30;;;11.90;95.10;;;;;;10479927;28;20232;-76
2024/02/27 16:13:16;;;;;;;0.30;0.30;;;11.90;95.30;;;;;;10480651;28;20563;-77
2024/02/27 16:18:20;;;;;;;0.30;0.30;;;11.90;95.10;;;;;;10481346;28;20231;-77
2024/02/27 16:23:25;;;;;;;0.30;0.30;;;11.90;95.10;;;;;;10474716;28;20212;-77
2024/02/27 16:28:27;;;;;;;0.30;0.30;;;11.90;95.00;;;;;;10456217;28;20759;-78
2024/02/27 16:33:31;;;;;;;0.30;0.30;;;11.80;94.80;;;;;;10459158;28;20197;-77
2024/02/27 16:38:33;;;;;;;0.30;0.30;;;11.80;95.00;;;;;;10482206;28;20286;-77
2024/02/27 16:43:36;;;;;;;0.30;0.30;;;11.70;94.90;;;;;;10474323;28;20188;-77
2024/02/27 16:48:40;;;;;;;0.10;0.10;;;11.70;95.10;;;;;;10475463;28;20697;-77
2024/02/27 16:53:42;;;;;;;0.33;0.33;;;11.70;95.20;;;;;;10479681;28;20196;-77
2024/02/27 16:58:45;;;;;;;0.40;0.40;;;11.60;95.30;;;;;;10490276;28;20247;-78
2024/02/27 17:03:48;;;;;;;0.30;0.30;;;11.60;95.20;;;;;;10491634;28;20197;-77
2024/02/27 17:08:51;;;;;;;0.40;0.40;;;11.50;95.50;;;;;;10524466;22;20269;-83
2024/02/27 17:13:53;;;;;;;0.30;0.30;;;11.50;95.40;;;;;;10529377;28;20204;-84
2024/02/27 17:18:57;;;;;;;0.20;0.20;;;11.50;95.20;;;;;;10512716;28;20221;-85
2024/02/27 17:24:00;;;;;;;0.40;0.40;;;11.40;95.30;;;;;;10475623;28;20201;-85
2024/02/27 17:29:03;;;;;;;0.40;0.40;;;11.30;95.20;;;;;;10498519;28;20221;-84
2024/02/27 17:34:07;;;;;;;0.40;0.40;;;11.20;95.50;;;;;;10471294;28;20189;-84
2024/02/27 17:39:10;;;;;;;0.40;0.40;;;11.20;95.50;;;;;;10496192;28;20216;-84
2024/02/27 17:44:12;;;;;;;0.20;0.20;;;11.10;95.30;;;;;;10497423;28;20208;-84
2024/02/27 17:49:16;;;;;;;0.50;0.50;;;11.00;95.40;;;;;;10514660;28;20224;-84
2024/02/27 17:54:18;;;;;;;0.47;0.47;;;10.90;95.60;;;;;;10505415;28;20192;-84
2024/02/27 17:59:21;;;;;;;0.40;0.40;;;10.90;95.90;;;;;;10519780;28;20274;-84
2024/02/27 18:04:25;;;;;;;0.40;0.40;;;10.90;96.10;;;;;;10498987;28;20226;-84
2024/02/27 18:09:27;;;;;;;0.50;0.50;;;10.80;96.20;;;;;;10514166;28;20380;-84
2024/02/27 18:14:30;;;;;;;0.50;0.50;;;10.80;96.40;;;;;;10501124;28;20261;-84
2024/02/27 18:19:34;;;;;;;0.37;0.37;;;10.80;96.40;;;;;;10520051;28;20232;-84
2024/02/27 18:24:37;;;;;;;0.40;0.40;;;10.80;96.60;;;;;;10494579;28;20219;-80
2024/02/27 18:29:40;;;;;;;0.40;0.40;;;10.90;96.70;;;;;;10550327;28;20214;-79
2024/02/27 18:34:44;;;;;;;0.50;0.50;;;10.90;96.70;;;;;;10553953;28;20196;-80
2024/02/27 18:39:47;;;;;;;0.50;0.50;;;10.90;96.60;;;;;;10539807;28;20204;-80
2024/02/27 18:44:49;;;;;;;0.30;0.30;;;11.00;96.70;;;;;;10549747;28;20192;-79
2024/02/27 18:49:53;;;;;;;0.40;0.40;;;11.00;96.60;;;;;;10533756;28;20627;-80
2024/02/27 18:54:55;;;;;;;0.40;0.40;;;11.00;96.50;;;;;;10543189;28;20722;-79
2024/02/27 18:59:58;;;;;;;0.40;0.40;;;11.00;96.50;;;;;;10538764;28;20216;-80
2024/02/27 19:05:02;;;;;;;0.40;0.40;;;11.10;96.30;;;;;;10535608;28;20269;-80
2024/02/27 19:10:05;;;;;;;0.30;0.30;;;11.10;96.40;;;;;;10542910;28;20231;-81
2024/02/27 19:15:09;;;;;;;0.40;0.40;;;11.10;96.60;;;;;;10542625;28;20229;-80
2024/02/27 19:20:12;;;;;;;0.40;0.40;;;11.10;96.70;;;;;;10541497;28;20611;-81
2024/02/27 19:25:15;;;;;;;0.50;0.50;;;11.10;96.50;;;;;;10542400;28;20204;-81
2024/02/27 19:30:18;;;;;;;0.50;0.50;;;11.10;96.40;;;;;;10537365;28;20219;-82
2024/02/27 19:35:21;;;;;;;0.50;0.50;;;11.10;96.30;;;;;;10540765;28;20200;-81
2024/02/27 19:40:24;;;;;;;0.53;0.53;;;11.10;96.60;;;;;;10546206;28;20212;-81
2024/02/27 19:45:26;;;;;;;0.50;0.50;;;11.10;96.80;;;;;;10524071;28;20208;-81
2024/02/27 19:50:30;;;;;;;0.50;0.50;;;11.00;96.90;;;;;;10528585;28;20227;-82
2024/02/27 19:55:32;;;;;;;0.40;0.40;;;11.00;97.10;;;;;;10541008;28;20192;-81
2024/02/27 20:00:36;;;;;;;0.40;0.40;;;11.00;97.10;;;;;;10540787;28;20628;-81
2024/02/27 20:05:40;;;;;;;0.50;0.50;;;10.90;97.00;;;;;;10544333;28;20204;-81
2024/02/27 20:10:42;;;;;;;0.57;0.57;;;10.90;97.10;;;;;;10520668;28;20224;-81
2024/02/27 20:15:45;;;;;;;0.50;0.50;;;10.90;97.20;;;;;;10537715;28;20207;-81
2024/02/27 20:20:48;;;;;;;0.40;0.40;;;10.90;97.10;;;;;;10539824;28;20649;-81
2024/02/27 20:25:53;;;;;;;0.50;0.50;;;10.90;97.00;;;;;;10532146;28;20200;-81
2024/02/27 20:30:55;;;;;;;0.63;0.63;;;11.00;96.40;;;;;;10521404;28;20597;-81
2024/02/27 20:35:59;;;;;;;0.57;0.57;;;11.00;96.50;;;;;;10544277;28;20716;-81
2024/02/27 20:41:02;;;;;;;0.60;0.60;;;10.90;96.80;;;;;;10525496;28;20215;-81
2024/02/27 20:46:04;;;;;;;0.50;0.50;;;11.00;96.80;;;;;;10523238;28;20200;-81
2024/02/27 20:51:08;;;;;;;0.40;0.40;;;10.90;96.80;;;;;;10524764;28;20228;-81
2024/02/27 20:56:10;;;;;;;0.50;0.50;;;11.00;96.70;;;;;;10539231;28;20226;-81
2024/02/27 21:01:13;;;;;;;0.50;0.50;;;10.90;96.80;;;;;;10543732;28;20215;-81
2024/02/27 21:06:17;;;;;;;0.40;0.40;;;10.90;96.80;;;;;;10538835;28;20192;-81
2024/02/27 21:11:19;;;;;;;0.50;0.50;;;11.00;96.90;;;;;;10528422;28;20223;-81
2024/02/27 21:16:21;;;;;;;0.43;0.43;;;10.90;96.60;;;;;;10545649;28;20211;-81
2024/02/27 21:21:25;;;;;;;0.50;0.50;;;10.90;96.90;;;;;;10543526;28;20223;-81
2024/02/27 21:26:28;;;;;;;0.50;0.50;;;10.90;96.70;;;;;;10539874;28;20203;-81
2024/02/27 21:31:30;;;;;;;0.50;0.50;;;10.90;96.90;;;;;;10545531;28;20224;-81
2024/02/27 21:36:34;;;;;;;0.50;0.50;;;10.90;96.90;;;;;;10536585;28;20196;-81
2024/02/27 21:41:36;;;;;;;0.40;0.40;;;10.90;96.70;;;;;;10522763;28;20207;-81
2024/02/27 21:46:39;;;;;;;0.50;0.50;;;10.90;96.90;;;;;;10519738;28;20249;-81
2024/02/27 21:51:43;;;;;;;0.43;0.43;;;10.90;96.80;;;;;;10509129;28;20215;-81
2024/02/27 21:56:46;;;;;;;0.40;0.40;;;10.80;96.60;;;;;;10545499;28;20528;-81
2024/02/27 22:01:49;;;;;;;0.50;0.50;;;10.80;96.20;;;;;;10540612;28;20256;-81
2024/02/27 22:06:53;;;;;;;0.60;0.60;;;10.80;96.40;;;;;;10539155;28;20227;-81
2024/02/27 22:11:55;;;;;;;0.60;0.60;;;10.80;96.40;;;;;;10541146;28;20219;-81
2024/02/27 22:16:57;;;;;;;0.50;0.50;;;10.80;96.10;;;;;;10556295;28;20215;-82
2024/02/27 22:22:01;;;;;;;0.50;0.50;;;10.80;96.20;;;;;;10551539;28;20210;-81
2024/02/27 22:27:04;;;;;;;0.43;0.43;;;10.80;96.20;;;;;;10550433;28;20212;-81
2024/02/27 22:32:07;;;;;;;0.50;0.50;;;10.80;96.40;;;;;;10540307;28;20216;-81
2024/02/27 22:37:11;;;;;;;0.50;0.50;;;10.70;96.50;;;;;;10530428;28;20224;-81
2024/02/27 22:42:13;;;;;;;0.50;0.50;;;10.80;96.40;;;;;;10544785;28;20203;-81
2024/02/27 22:47:15;;;;;;;0.50;0.50;;;10.80;96.20;;;;;;10540527;28;20708;-81
2024/02/27 22:52:19;;;;;;;0.50;0.50;;;10.70;96.60;;;;;;10534517;28;20212;-81
2024/02/27 22:57:23;;;;;;;0.50;0.50;;;10.70;96.30;;;;;;10549029;28;20227;-81
2024/02/27 23:02:25;;;;;;;0.50;0.50;;;10.70;96.70;;;;;;10514556;28;20257;-81
2024/02/27 23:07:29;;;;;;;0.60;0.60;;;10.70;96.80;;;;;;10549856;28;20219;-81
2024/02/27 23:12:31;;;;;;;0.60;0.60;;;10.70;96.80;;;;;;10565468;22;20729;-80
2024/02/27 23:17:33;;;;;;;0.50;0.50;;;10.70;96.70;;;;;;10540285;28;20192;-81
2024/02/27 23:22:37;;;;;;;0.60;0.60;;;10.70;96.60;;;;;;10538222;28;20219;-80
2024/02/27 23:27:40;;;;;;;0.60;0.60;;;10.70;96.80;;;;;;10551916;28;20699;-78
2024/02/27 23:32:42;;;;;;;0.50;0.50;;;10.70;96.30;;;;;;10541780;28;20231;-80
2024/02/27 23:37:47;;;;;;;0.70;0.70;;;10.60;96.40;;;;;;10537429;28;20215;-80
2024/02/27 23:42:50;;;;;;;0.50;0.50;;;10.60;96.70;;;;;;10564445;28;20227;-79
2024/02/27 23:47:52;;;;;;;0.60;0.60;;;10.60;96.70;;;;;;10576279;28;20219;-84
2024/02/27 23:52:56;;;;;;;0.60;0.60;;;10.60;96.70;;;;;;10573204;28;20231;-81
2024/02/27 23:57:58;;;;;;;0.50;0.50;;;10.60;96.70;;;;;;10573321;28;20176;-82
